Time;durP1;ratioP1;P1;durP2;ratioP2;P2;SDS_P1;SDS_P2;PMS_P1;PMS_P2;Temp;Humidity;BMP_temperature;BMP_pressure;BME280_temperature;BME280_humidity;BME280_pressure;Samples;Min_cycle;Max_cycle;Signal;HPM_P1;HPM_P2
2023/03/28 00:02:20;;;;;;;14.07;2.70;;;;;;;;;;4994571;28;20050;-63
2023/03/28 00:04:48;;;;;;;11.35;1.60;;;;;;;;;;4981568;28;20502;-64
2023/03/28 00:07:14;;;;;;;11.50;1.50;;;;;;;;;;4981706;28;20131;-63
2023/03/28 00:09:41;;;;;;;9.43;2.10;;;;;;;;;;5001795;28;20046;-63
2023/03/28 00:12:07;;;;;;;8.77;1.30;;;;;;;;;;4986872;28;20104;-63
2023/03/28 00:14:34;;;;;;;13.50;3.38;;;;;;;;;;4985504;28;20096;-63
2023/03/28 00:17:00;;;;;;;8.35;1.55;;;;;;;;;;5001753;28;20108;-63
2023/03/28 00:19:31;;;;;;;11.13;1.63;;;;;;;;;;4969417;28;20045;-64
2023/03/28 00:21:58;;;;;;;6.53;1.50;;;;;;;;;;4959353;28;20057;-64
2023/03/28 00:24:24;;;;;;;11.13;1.70;;;;;;;;;;4988310;28;20151;-63
2023/03/28 00:26:53;;;;;;;6.70;1.55;;;;;;;;;;5001468;28;20129;-64
2023/03/28 00:29:20;;;;;;;14.65;2.13;;;;;;;;;;4978978;28;20053;-63
2023/03/28 00:31:48;;;;;;;7.35;1.77;;;;;;;;;;4983765;28;20044;-63
2023/03/28 00:34:14;;;;;;;9.93;1.75;;;;;;;;;;5006052;28;20045;-63
2023/03/28 00:36:41;;;;;;;12.52;1.98;;;;;;;;;;4970512;28;20056;-64
2023/03/28 00:39:09;;;;;;;10.88;2.47;;;;;;;;;;4993462;28;20034;-63
2023/03/28 00:41:38;;;;;;;7.70;1.38;;;;;;;;;;4981061;28;20057;-63
2023/03/28 00:44:23;;;;;;;7.05;1.00;;;;;;;;;;4973023;28;20049;-63
2023/03/28 00:46:50;;;;;;;11.88;1.35;;;;;;;;;;5010101;28;20046;-63
2023/03/28 00:49:23;;;;;;;11.40;1.63;;;;;;;;;;4979643;28;20065;-63
2023/03/28 00:52:01;;;;;;;10.35;1.40;;;;;;;;;;4966348;28;20046;-64
2023/03/28 00:54:29;;;;;;;8.30;1.48;;;;;;;;;;4979269;28;20108;-63
2023/03/28 00:56:57;;;;;;;15.02;3.10;;;;;;;;;;4969392;28;20112;-63
2023/03/28 00:59:26;;;;;;;16.55;3.40;;;;;;;;;;4976314;28;20042;-63
2023/03/28 01:01:54;;;;;;;20.55;3.40;;;;;;;;;;4980738;28;20081;-63
2023/03/28 01:04:21;;;;;;;17.75;3.30;;;;;;;;;;4992106;28;20046;-63
2023/03/28 01:06:49;;;;;;;15.90;3.15;;;;;;;;;;4961989;28;20046;-64
2023/03/28 01:09:16;;;;;;;12.73;3.88;;;;;;;;;;4969516;28;20081;-64
2023/03/28 01:11:44;;;;;;;18.42;4.70;;;;;;;;;;4969773;28;20061;-63
2023/03/28 01:14:12;;;;;;;20.33;3.05;;;;;;;;;;4991857;28;20070;-63
2023/03/28 01:16:41;;;;;;;6.50;2.25;;;;;;;;;;4962226;28;20435;-63
2023/03/28 01:19:20;;;;;;;16.38;2.65;;;;;;;;;;4968432;28;20046;-64
2023/03/28 01:22:28;;;;;;;9.80;2.55;;;2.40;99.90;;;;;;4989960;28;20572;-64
2023/03/28 01:25:12;;;;;;;11.38;2.13;;;;;;;;;;4932945;29;20058;-64
2023/03/28 01:28:01;;;;;;;15.48;2.40;;;;;;;;;;4933767;29;20130;-63
2023/03/28 01:31:04;;;;;;;16.27;2.33;;;2.60;99.90;;;;;;4933456;29;20048;-64
2023/03/28 01:33:35;;;;;;;9.63;2.25;;;;;;;;;;4933701;29;20043;-64
2023/03/28 01:36:16;;;;;;;9.38;2.00;;;;;;;;;;4929207;29;20473;-64
2023/03/28 01:38:42;;;;;;;;;;;;;;;;;;4933099;29;20101;-64
2023/03/28 01:41:52;;;;;;;11.60;1.45;;;2.40;99.90;;;;;;4931939;29;20375;-64
2023/03/28 01:44:29;;;;;;;9.75;1.75;;;;;;;;;;4860924;29;20104;-63
2023/03/28 01:47:00;;;;;;;13.23;1.77;;;;;;;;;;4859246;29;20057;-64
2023/03/28 01:49:33;;;;;;;13.40;2.05;;;;;;;;;;4858189;29;20565;-63
2023/03/28 01:52:05;;;;;;;15.23;1.65;;;;;;;;;;4877429;29;20056;-63
2023/03/28 01:54:50;;;;;;;16.98;2.42;;;;;;;;;;4877397;29;20886;-63
2023/03/28 01:57:32;;;;;;;12.43;2.25;;;;;;;;;;4872458;29;20513;-63
2023/03/28 01:59:58;;;;;;;14.77;3.63;;;;;;;;;;4993757;23;20457;-63
2023/03/28 02:02:28;;;;;;;8.75;1.70;;;;;;;;;;5012554;28;20092;-63
2023/03/28 02:04:56;;;;;;;4.43;1.83;;;;;;;;;;4987104;28;20050;-63
2023/03/28 02:07:23;;;;;;;11.13;2.40;;;;;;;;;;4982857;28;20475;-63
2023/03/28 02:09:51;;;;;;;11.07;2.78;;;;;;;;;;4983682;28;20038;-63
2023/03/28 02:12:29;;;;;;;9.75;1.90;;;;;;;;;;5001675;23;20104;-63
2023/03/28 02:17:28;;;;;;;17.90;2.80;;;;;;;;;;5007490;23;20136;-63
2023/03/28 02:19:59;;;;;;;9.57;2.67;;;;;;;;;;4987186;28;20054;-63
2023/03/28 02:22:25;;;;;;;11.05;2.03;;;;;;;;;;4974192;28;20046;-63
2023/03/28 02:24:52;;;;;;;12.05;2.15;;;;;;;;;;5006342;28;20078;-63
2023/03/28 02:27:21;;;;;;;8.68;2.35;;;;;;;;;;4975318;28;20053;-64
2023/03/28 02:29:48;;;;;;;14.20;2.27;;;;;;;;;;4984607;28;20047;-64
2023/03/28 02:32:15;;;;;;;16.60;2.65;;;;;;;;;;4975453;28;20506;-63
2023/03/28 02:34:43;;;;;;;13.57;1.88;;;;;;;;;;4991025;28;20079;-64
2023/03/28 02:37:12;;;;;;;13.63;2.05;;;;;;;;;;4991143;28;20049;-64
2023/03/28 02:40:01;;;;;;;5.53;2.10;;;;;;;;;;5006489;28;20058;-63
2023/03/28 02:43:04;;;;;;;11.15;1.50;;;1.60;99.90;;;;;;5003779;28;20037;-63
2023/03/28 02:45:39;;;;;;;11.93;1.45;;;;;;;;;;5002053;28;20394;-63
2023/03/28 02:48:17;;;;;;;6.03;1.45;;;;;;;;;;4976044;28;20042;-63
2023/03/28 02:50:47;;;;;;;8.90;2.80;;;;;;;;;;4999381;28;20057;-63
2023/03/28 02:53:25;;;;;;;9.35;2.00;;;;;;;;;;4970020;28;20054;-63
2023/03/28 02:55:53;;;;;;;11.52;1.50;;;;;;;;;;4988244;28;20077;-63
2023/03/28 02:58:36;;;;;;;19.05;3.47;;;;;;;;;;4993888;28;20049;-63
2023/03/28 03:01:05;;;;;;;6.38;1.65;;;;;;;;;;4991122;28;20042;-64
2023/03/28 03:03:32;;;;;;;9.30;2.22;;;;;;;;;;5001311;28;20559;-63
2023/03/28 03:05:59;;;;;;;8.57;1.48;;;;;;;;;;5000976;28;20042;-63
2023/03/28 03:08:26;;;;;;;13.35;1.90;;;;;;;;;;5003713;28;20045;-63
2023/03/28 03:10:53;;;;;;;11.40;1.70;;;;;;;;;;4985637;28;20046;-64
2023/03/28 03:13:19;;;;;;;8.77;1.42;;;;;;;;;;4992738;28;20046;-63
2023/03/28 03:15:45;;;;;;;8.07;1.40;;;;;;;;;;4983745;28;20058;-64
2023/03/28 03:18:11;;;;;;;12.82;1.90;;;;;;;;;;5003063;28;20046;-63
2023/03/28 03:20:39;;;;;;;15.52;1.98;;;;;;;;;;4976374;28;20105;-64
2023/03/28 03:23:07;;;;;;;7.85;1.58;;;;;;;;;;4975825;28;20081;-63
2023/03/28 03:25:33;;;;;;;7.75;1.75;;;;;;;;;;4966858;28;20053;-63
2023/03/28 03:27:59;;;;;;;10.82;1.98;;;;;;;;;;5000565;28;20045;-64
2023/03/28 03:30:26;;;;;;;6.97;1.58;;;;;;;;;;5007129;28;20142;-63
2023/03/28 03:32:52;;;;;;;15.48;2.50;;;;;;;;;;4989609;28;20100;-64
2023/03/28 03:35:21;;;;;;;14.93;2.20;;;;;;;;;;5010559;28;20136;-63
2023/03/28 03:37:47;;;;;;;10.93;2.30;;;;;;;;;;4973965;28;20068;-65
2023/03/28 03:40:13;;;;;;;12.40;2.53;;;;;;;;;;4993754;28;20042;-63
2023/03/28 03:42:39;;;;;;;13.75;1.60;;;;;;;;;;5001016;28;20073;-63
2023/03/28 03:45:06;;;;;;;17.65;2.15;;;;;;;;;;5001648;28;20100;-63
2023/03/28 03:47:32;;;;;;;14.40;1.75;;;;;;;;;;4982065;28;20491;-64
2023/03/28 03:49:58;;;;;;;10.68;1.42;;;;;;;;;;4965376;28;20453;-63
2023/03/28 03:52:24;;;;;;;13.13;2.35;;;;;;;;;;5009419;28;20045;-63
2023/03/28 03:54:50;;;;;;;13.18;2.00;;;;;;;;;;4989007;28;20038;-63
2023/03/28 03:57:16;;;;;;;11.15;3.60;;;;;;;;;;4975096;28;20034;-63
2023/03/28 03:59:42;;;;;;;15.23;3.00;;;;;;;;;;4960982;28;20128;-63
2023/03/28 04:02:09;;;;;;;9.10;3.47;;;;;;;;;;4977330;28;20042;-64
2023/03/28 04:04:35;;;;;;;11.60;2.38;;;;;;;;;;4982714;28;20058;-64
2023/03/28 04:07:02;;;;;;;11.27;2.20;;;;;;;;;;4989028;28;20049;-64
2023/03/28 04:09:28;;;;;;;6.18;1.60;;;;;;;;;;4969327;28;20046;-63
2023/03/28 04:11:54;;;;;;;11.98;2.00;;;;;;;;;;5006608;28;20052;-63
2023/03/28 04:14:21;;;;;;;12.68;2.40;;;;;;;;;;4984890;28;20144;-63
2023/03/28 04:16:49;;;;;;;14.65;2.15;;;;;;;;;;4986020;28;20054;-64
2023/03/28 04:19:16;;;;;;;9.73;2.30;;;;;;;;;;5009583;28;20541;-63
2023/03/28 04:21:46;;;;;;;12.57;1.75;;;;;;;;;;4975412;28;21925;-64
2023/03/28 04:24:16;;;;;;;10.32;2.20;;;;;;;;;;4974679;28;20125;-63
2023/03/28 04:26:44;;;;;;;7.72;1.60;;;;;;;;;;4999895;28;20038;-63
2023/03/28 04:29:11;;;;;;;9.30;2.10;;;;;;;;;;4990607;28;20038;-63
2023/03/28 04:31:38;;;;;;;9.75;2.55;;;;;;;;;;5001802;28;20088;-63
2023/03/28 04:34:05;;;;;;;15.63;2.80;;;;;;;;;;5001898;28;20072;-63
2023/03/28 04:36:31;;;;;;;13.55;2.88;;;;;;;;;;4985397;28;20060;-64
2023/03/28 04:39:00;;;;;;;9.50;1.75;;;;;;;;;;4981848;28;20046;-63
2023/03/28 04:41:27;;;;;;;11.07;1.40;;;;;;;;;;4958477;28;20045;-63
2023/03/28 04:43:53;;;;;;;13.05;1.98;;;;;;;;;;4966540;28;20046;-63
2023/03/28 04:46:19;;;;;;;11.50;2.10;;;;;;;;;;4974813;28;20126;-63
2023/03/28 04:48:45;;;;;;;12.35;2.13;;;;;;;;;;5001418;28;20089;-64
2023/03/28 04:51:12;;;;;;;8.70;1.48;;;;;;;;;;4967273;28;20045;-64
2023/03/28 04:53:38;;;;;;;11.13;1.75;;;;;;;;;;4979551;28;20478;-63
2023/03/28 04:56:04;;;;;;;8.93;1.90;;;;;;;;;;4990148;28;20046;-63
2023/03/28 04:58:31;;;;;;;8.00;2.28;;;;;;;;;;4974694;28;20479;-63
2023/03/28 05:01:01;;;;;;;7.65;1.63;;;;;;;;;;4972858;28;20046;-64
2023/03/28 05:03:27;;;;;;;4.55;1.60;;;;;;;;;;4979927;28;20137;-63
2023/03/28 05:05:53;;;;;;;14.52;2.63;;;;;;;;;;5000426;28;20046;-64
2023/03/28 05:08:21;;;;;;;11.20;1.83;;;;;;;;;;4983809;28;20046;-64
2023/03/28 05:10:48;;;;;;;9.10;1.67;;;;;;;;;;4966831;28;20061;-63
2023/03/28 05:13:14;;;;;;;11.25;2.15;;;;;;;;;;5046287;23;20128;-63
2023/03/28 05:15:41;;;;;;;7.93;1.90;;;;;;;;;;4989712;28;20088;-63
2023/03/28 05:18:07;;;;;;;11.05;2.13;;;;;;;;;;5006845;28;20470;-63
2023/03/28 05:20:33;;;;;;;12.38;1.65;;;;;;;;;;5001804;28;20148;-64
2023/03/28 05:23:00;;;;;;;11.80;2.15;;;;;;;;;;4959427;28;20050;-63
2023/03/28 05:25:27;;;;;;;7.53;1.67;;;;;;;;;;5000553;28;20042;-64
2023/03/28 05:27:53;;;;;;;8.98;2.85;;;;;;;;;;5017077;23;20090;-63
2023/03/28 05:30:19;;;;;;;10.52;2.15;;;;;;;;;;4982914;28;20147;-64
2023/03/28 05:32:46;;;;;;;11.93;2.22;;;;;;;;;;4966158;28;20050;-64
2023/03/28 05:35:13;;;;;;;9.52;2.15;;;;;;;;;;4979536;28;20046;-63
2023/03/28 05:37:39;;;;;;;7.28;1.85;;;;;;;;;;4965051;28;20061;-64
2023/03/28 05:40:06;;;;;;;10.80;2.85;;;;;;;;;;4968366;28;20054;-64
2023/03/28 05:42:34;;;;;;;6.00;1.83;;;;;;;;;;4942302;28;20058;-64
2023/03/28 05:45:00;;;;;;;10.32;1.85;;;;;;;;;;4975713;28;20419;-63
2023/03/28 05:47:26;;;;;;;12.77;2.08;;;;;;;;;;4945161;28;20046;-64
2023/03/28 05:49:52;;;;;;;18.48;2.65;;;;;;;;;;4955154;28;20050;-64
2023/03/28 05:52:19;;;;;;;12.68;4.35;;;;;;;;;;4973065;28;20054;-64
2023/03/28 05:54:45;;;;;;;8.20;2.58;;;;;;;;;;4980067;28;20058;-64
2023/03/28 05:57:11;;;;;;;16.05;2.88;;;;;;;;;;4986052;28;20049;-63
2023/03/28 05:59:41;;;;;;;13.57;2.80;;;;;;;;;;4952292;28;20137;-64
2023/03/28 06:02:12;;;;;;;17.20;2.95;;;;;;;;;;4972853;28;20495;-64
2023/03/28 06:04:38;;;;;;;11.35;2.55;;;;;;;;;;4982578;28;20042;-64
2023/03/28 06:07:05;;;;;;;9.70;2.67;;;;;;;;;;4948005;28;20050;-64
2023/03/28 06:09:33;;;;;;;13.55;3.38;;;;;;;;;;4982538;28;20058;-64
2023/03/28 06:11:59;;;;;;;9.77;2.13;;;;;;;;;;4978645;28;20054;-64
2023/03/28 06:14:25;;;;;;;9.20;2.72;;;;;;;;;;4976739;28;20042;-64
2023/03/28 06:16:51;;;;;;;15.32;3.25;;;;;;;;;;4994825;28;20550;-64
2023/03/28 06:19:17;;;;;;;13.68;2.40;;;;;;;;;;4987236;28;20133;-64
2023/03/28 06:21:44;;;;;;;9.93;2.30;;;;;;;;;;4960218;28;20062;-65
2023/03/28 06:24:10;;;;;;;15.00;2.70;;;;;;;;;;4993060;28;20121;-64
2023/03/28 06:26:36;;;;;;;8.05;2.15;;;;;;;;;;4961599;28;20046;-65
2023/03/28 06:29:02;;;;;;;10.18;2.70;;;;;;;;;;4975843;28;20074;-65
2023/03/28 06:31:28;;;;;;;13.30;1.77;;;;;;;;;;4976526;28;20089;-65
2023/03/28 06:33:54;;;;;;;7.90;1.77;;;;;;;;;;4975043;28;20046;-65
2023/03/28 06:36:20;;;;;;;12.60;2.10;;;;;;;;;;4960718;28;20050;-65
2023/03/28 06:38:48;;;;;;;9.95;2.30;;;;;;;;;;4983775;28;20078;-65
2023/03/28 06:41:15;;;;;;;5.93;1.40;;;;;;;;;;4980549;28;20710;-64
2023/03/28 06:43:41;;;;;;;8.73;1.83;;;;;;;;;;4974351;28;20487;-65
2023/03/28 06:46:08;;;;;;;12.55;2.72;;;;;;;;;;4975006;28;20126;-65
2023/03/28 06:48:34;;;;;;;10.40;1.52;;;;;;;;;;4957323;28;20047;-65
2023/03/28 06:51:00;;;;;;;8.18;1.98;;;;;;;;;;4990150;28;20046;-65
2023/03/28 06:53:26;;;;;;;6.80;1.88;;;;;;;;;;4993697;28;20064;-65
2023/03/28 06:55:53;;;;;;;11.43;2.53;;;;;;;;;;4966684;28;20576;-66
2023/03/28 06:58:20;;;;;;;13.05;3.22;;;;;;;;;;4959289;28;20088;-65
2023/03/28 07:00:46;;;;;;;12.00;3.60;;;;;;;;;;4969832;28;20046;-65
2023/03/28 07:03:12;;;;;;;16.98;3.50;;;;;;;;;;4973800;28;20054;-65
2023/03/28 07:05:39;;;;;;;20.98;4.75;;;;;;;;;;4953835;28;20133;-65
2023/03/28 07:08:05;;;;;;;21.67;4.85;;;;;;;;;;4971464;28;20106;-65
2023/03/28 07:10:32;;;;;;;20.27;7.28;;;;;;;;;;4950828;28;20050;-65
2023/03/28 07:12:58;;;;;;;27.17;7.65;;;;;;;;;;4986378;28;20129;-65
2023/03/28 07:15:24;;;;;;;26.55;7.53;;;;;;;;;;4990750;28;20118;-65
2023/03/28 07:17:50;;;;;;;27.15;8.45;;;;;;;;;;4980871;28;20042;-65
2023/03/28 07:20:16;;;;;;;29.77;8.68;;;;;;;;;;4992856;28;20561;-65
2023/03/28 07:22:42;;;;;;;27.30;8.73;;;;;;;;;;4975273;28;20064;-65
2023/03/28 07:25:08;;;;;;;23.23;7.90;;;;;;;;;;4993651;28;20164;-65
2023/03/28 07:27:34;;;;;;;20.40;5.70;;;;;;;;;;4992470;28;20497;-65
2023/03/28 07:30:00;;;;;;;24.40;6.50;;;;;;;;;;4993177;28;20047;-64
2023/03/28 07:32:26;;;;;;;20.77;5.75;;;;;;;;;;4969186;28;20144;-65
2023/03/28 07:34:52;;;;;;;15.80;4.93;;;;;;;;;;4984018;28;20051;-64
2023/03/28 07:37:19;;;;;;;20.77;5.15;;;;;;;;;;4957574;28;20450;-64
2023/03/28 07:39:45;;;;;;;15.05;4.57;;;;;;;;;;4992931;28;20046;-64
2023/03/28 07:42:12;;;;;;;15.75;4.82;;;;;;;;;;4958740;28;20499;-64
2023/03/28 07:44:38;;;;;;;12.32;3.63;;;;;;;;;;4941024;28;20503;-64
2023/03/28 07:47:04;;;;;;;17.73;2.88;;;;;;;;;;4977975;28;20046;-65
2023/03/28 07:49:31;;;;;;;9.82;2.00;;;;;;;;;;4971637;28;20054;-64
2023/03/28 07:51:57;;;;;;;8.82;1.50;;;;;;;;;;4992265;28;20045;-64
2023/03/28 07:54:23;;;;;;;5.97;1.60;;;;;;;;;;4968001;28;20466;-64
2023/03/28 07:56:50;;;;;;;7.35;2.50;;;;;;;;;;4985128;28;21537;-64
2023/03/28 07:59:16;;;;;;;9.00;2.05;;;;;;;;;;4972432;28;20050;-64
2023/03/28 08:01:43;;;;;;;9.20;2.72;;;;;;;;;;4992468;28;20053;-65
2023/03/28 08:04:10;;;;;;;7.57;1.70;;;;;;;;;;4975676;28;20101;-64
2023/03/28 08:06:37;;;;;;;7.47;1.63;;;;;;;;;;4987702;28;20054;-64
2023/03/28 08:09:14;;;;;;;6.47;1.40;;;;;;;;;;4957154;28;20054;-64
2023/03/28 08:11:40;;;;;;;6.40;1.38;;;;;;;;;;4959054;28;20050;-64
2023/03/28 08:14:08;;;;;;;6.18;1.20;;;;;;;;;;4967031;28;20050;-64
2023/03/28 08:16:34;;;;;;;4.88;2.03;;;;;;;;;;4978727;28;20046;-64
2023/03/28 08:19:00;;;;;;;10.07;1.83;;;;;;;;;;4982896;28;20049;-63
2023/03/28 08:21:29;;;;;;;6.00;1.35;;;;;;;;;;4980410;28;20042;-63
2023/03/28 08:23:56;;;;;;;9.60;1.55;;;;;;;;;;4992844;28;20517;-64
2023/03/28 08:26:22;;;;;;;7.38;1.48;;;;;;;;;;4952118;28;20144;-63
2023/03/28 08:28:48;;;;;;;4.78;1.08;;;;;;;;;;4951722;28;20550;-63
2023/03/28 08:31:15;;;;;;;5.88;1.00;;;;;;;;;;4967944;28;20043;-63
2023/03/28 08:33:43;;;;;;;7.40;1.40;;;;;;;;;;4946802;28;20101;-64
2023/03/28 08:36:13;;;;;;;10.45;2.53;;;;;;;;;;4958602;23;20072;-64
2023/03/28 08:38:43;;;;;;;9.30;2.03;;;;;;;;;;5008782;23;20066;-63
2023/03/28 08:41:15;;;;;;;9.07;1.83;;;;;;;;;;4982076;23;20062;-64
2023/03/28 08:43:50;;;;;;;8.38;2.10;;;;;;;;;;4987364;28;20049;-63
2023/03/28 08:46:18;;;;;;;8.20;1.73;;;;;;;;;;4985481;28;20046;-63
2023/03/28 08:48:45;;;;;;;6.75;1.42;;;;;;;;;;4982325;28;20454;-63
2023/03/28 08:51:14;;;;;;;8.15;1.42;;;;;;;;;;4966422;28;20058;-63
2023/03/28 08:53:46;;;;;;;3.10;1.10;;;;;;;;;;5002204;28;20394;-64
2023/03/28 08:56:14;;;;;;;6.22;1.50;;;;;;;;;;4969013;28;20443;-63
2023/03/28 08:59:06;;;;;;;5.80;1.30;;;8.00;99.90;;;;;;5014839;23;20058;-63
2023/03/28 09:01:32;;;;;;;3.22;1.05;;;;;;;;;;4943416;28;20101;-63
2023/03/28 09:03:59;;;;;;;5.93;1.50;;;;;;;;;;4936064;28;20081;-63
2023/03/28 09:06:27;;;;;;;8.32;2.08;;;;;;;;;;4948483;28;20051;-64
2023/03/28 09:09:08;;;;;;;5.32;1.17;;;;;;;;;;4953310;28;20051;-63
2023/03/28 09:11:53;;;;;;;7.18;0.98;;;;;;;;;;4971357;28;20058;-63
2023/03/28 09:14:34;;;;;;;6.05;0.90;;;;;;;;;;4969861;28;20479;-63
2023/03/28 09:17:06;;;;;;;9.40;1.20;;;;;;;;;;4970610;28;20518;-63
2023/03/28 09:19:44;;;;;;;3.72;1.00;;;;;;;;;;4970307;28;20053;-63
2023/03/28 09:22:18;;;;;;;6.82;1.05;;;;;;;;;;4970557;28;20547;-63
2023/03/28 09:24:50;;;;;;;6.55;1.02;;;;;;;;;;4966179;28;20101;-63
2023/03/28 09:27:31;;;;;;;8.55;1.25;;;;;;;;;;4971114;28;20115;-63
2023/03/28 09:29:59;;;;;;;6.05;1.40;;;;;;;;;;4937538;28;20138;-63
2023/03/28 09:32:31;;;;;;;3.90;0.90;;;;;;;;;;4936684;28;20062;-63
2023/03/28 09:34:58;;;;;;;4.53;1.20;;;;;;;;;;4951616;28;20527;-64
2023/03/28 09:37:31;;;;;;;6.10;1.35;;;;;;;;;;4931154;29;20059;-63
2023/03/28 09:39:59;;;;;;;4.28;1.05;;;;;;;;;;4935621;28;20042;-63
2023/03/28 09:42:52;;;;;;;4.03;1.10;;;;;;;;;;4954052;28;20055;-63
2023/03/28 09:45:29;;;;;;;8.10;1.23;;;;;;;;;;4958465;28;20407;-63
2023/03/28 09:47:55;;;;;;;4.97;1.42;;;;;;;;;;4958253;28;20070;-63
2023/03/28 09:50:21;;;;;;;6.53;1.98;;;;;;;;;;4974853;28;20043;-63
2023/03/28 09:52:49;;;;;;;10.57;2.60;;;;;;;;;;4974881;28;20384;-63
2023/03/28 09:55:17;;;;;;;9.32;1.70;;;;;;;;;;4975541;28;20102;-63
2023/03/28 09:58:00;;;;;;;5.38;1.73;;;;;;;;;;4941823;28;20435;-63
2023/03/28 10:00:26;;;;;;;4.60;1.30;;;;;;;;;;4970366;28;20554;-63
2023/03/28 10:02:52;;;;;;;9.38;1.92;;;;;;;;;;4972572;28;20054;-63
2023/03/28 10:05:35;;;;;;;5.20;1.65;;;;;;;;;;4951906;28;20479;-63
2023/03/28 10:08:24;;;;;;;5.78;1.23;;;;;;;;;;4981540;28;20454;-63
2023/03/28 10:10:55;;;;;;;5.70;1.10;;;;;;;;;;4962981;28;20054;-63
2023/03/28 10:13:22;;;;;;;5.53;1.20;;;;;;;;;;4955378;28;20056;-63
2023/03/28 10:15:52;;;;;;;7.05;1.70;;;;;;;;;;4952828;28;20054;-63
2023/03/28 10:18:25;;;;;;;3.80;1.30;;;;;;;;;;4954183;28;20054;-65
2023/03/28 10:20:51;;;;;;;4.22;1.40;;;;;;;;;;4954304;28;20093;-63
2023/03/28 10:23:17;;;;;;;5.20;1.38;;;;;;;;;;4954187;28;20517;-64
2023/03/28 10:25:44;;;;;;;9.88;2.55;;;;;;;;;;4983280;28;20133;-63
2023/03/28 10:28:16;;;;;;;7.53;2.00;;;;;;;;;;4968777;28;20089;-63
2023/03/28 10:30:42;;;;;;;7.18;1.92;;;;;;;;;;4984432;28;20440;-64
2023/03/28 10:33:19;;;;;;;8.77;1.90;;;;;;;;;;4966234;28;20093;-63
2023/03/28 10:35:56;;;;;;;3.88;1.42;;;;;;;;;;4983968;28;20057;-64
2023/03/28 10:38:23;;;;;;;8.63;1.90;;;;;;;;;;4987713;28;20058;-63
2023/03/28 10:40:58;;;;;;;7.20;1.95;;;;;;;;;;4964806;28;20550;-63
2023/03/28 10:43:30;;;;;;;7.22;1.60;;;;;;;;;;4948819;28;20047;-63
2023/03/28 10:45:58;;;;;;;6.70;1.83;;;;;;;;;;4952206;28;20041;-64
2023/03/28 10:48:28;;;;;;;7.53;1.98;;;;;;;;;;4970791;28;20046;-63
2023/03/28 10:50:55;;;;;;;8.82;2.20;;;;;;;;;;4964831;28;20043;-63
2023/03/28 10:53:39;;;;;;;4.68;1.27;;;;;;;;;;4967696;28;20533;-64
2023/03/28 10:56:06;;;;;;;8.35;2.05;;;;;;;;;;4984875;28;20552;-63
2023/03/28 10:58:36;;;;;;;7.32;2.22;;;;;;;;;;4986689;28;20046;-63
2023/03/28 11:01:08;;;;;;;;;;;9.10;99.90;;;;;;4947504;28;20057;-63
2023/03/28 11:03:34;;;;;;;5.70;1.60;;;;;;;;;;4977538;28;19926;-64
2023/03/28 11:06:00;;;;;;;6.75;1.98;;;;;;;;;;4964344;28;20062;-63
2023/03/28 11:08:30;;;;;;;3.38;2.10;;;;;;;;;;4980009;28;20097;-63
2023/03/28 11:10:56;;;;;;;4.70;2.00;;;;;;;;;;4985936;28;20046;-63
2023/03/28 11:13:34;;;;;;;7.65;2.30;;;;;;;;;;4985300;28;20130;-63
2023/03/28 11:16:03;;;;;;;4.22;1.80;;;;;;;;;;4964951;28;20043;-64
2023/03/28 11:18:32;;;;;;;5.18;2.42;;;;;;;;;;4976853;28;20134;-64
2023/03/28 11:21:19;;;;;;;2.90;1.30;;;;;;;;;;4959888;28;20038;-64
2023/03/28 11:23:52;;;;;;;7.13;2.20;;;;;;;;;;4972636;28;20054;-63
2023/03/28 11:26:30;;;;;;;8.88;2.38;;;;;;;;;;4956356;28;20046;-65
2023/03/28 11:28:58;;;;;;;3.20;1.80;;;;;;;;;;4930070;28;20039;-64
2023/03/28 11:31:32;;;;;;;7.28;2.30;;;;;;;;;;4948868;28;20057;-64
2023/03/28 11:34:01;;;;;;;7.07;1.80;;;;;;;;;;4973646;28;20568;-64
2023/03/28 11:37:00;;;;;;;8.10;2.08;;;;;;;;;;4974612;28;20058;-65
2023/03/28 11:39:26;;;;;;;5.22;1.77;;;;;;;;;;4941562;28;20615;-64
2023/03/28 11:41:53;;;;;;;7.05;2.85;;;;;;;;;;4961300;28;20048;-64
2023/03/28 11:44:25;;;;;;;7.80;2.13;;;;;;;;;;4937736;29;20392;-64
2023/03/28 11:47:05;;;;;;;7.82;2.63;;;;;;;;;;4938100;29;20055;-64
2023/03/28 11:49:43;;;;;;;5.10;2.22;;;;;;;;;;4937922;29;20051;-64
2023/03/28 11:52:16;;;;;;;9.20;2.40;;;;;;;;;;4947684;29;20091;-64
2023/03/28 11:54:46;;;;;;;5.88;1.90;;;;;;;;;;4953196;29;20492;-64
2023/03/28 11:57:30;;;;;;;5.03;1.80;;;;;;;;;;4971465;28;20053;-64
2023/03/28 12:00:05;;;;;;;5.80;2.42;;;;;;;;;;4965328;28;20062;-64
2023/03/28 12:02:35;;;;;;;9.65;2.20;;;;;;;;;;4959826;28;20141;-64
2023/03/28 12:05:21;;;;;;;6.85;2.40;;;;;;;;;;4993229;28;20072;-64
2023/03/28 12:08:06;;;;;;;4.82;1.88;;;10.40;99.90;;;;;;4958953;28;20050;-64
2023/03/28 12:10:37;;;;;;;6.07;2.53;;;;;;;;;;4993149;28;20050;-64
2023/03/28 12:13:15;;;;;;;8.65;2.65;;;;;;;;;;4959879;28;20061;-64
2023/03/28 12:15:52;;;;;;;5.80;2.00;;;;;;;;;;4992924;28;20053;-64
2023/03/28 12:18:28;;;;;;;7.13;2.40;;;;;;;;;;4959719;28;20042;-64
2023/03/28 12:21:18;;;;;;;8.57;2.80;;;;;;;;;;4975011;28;20117;-65
2023/03/28 12:23:58;;;;;;;4.93;2.67;;;;;;;;;;4966598;28;20125;-64
2023/03/28 12:26:49;;;;;;;9.27;2.37;;;9.60;99.90;;;;;;4961563;28;20093;-64
2023/03/28 12:29:24;;;;;;;7.50;2.38;;;;;;;;;;4974354;28;20150;-64
2023/03/28 12:31:52;;;;;;;6.63;2.25;;;;;;;;;;4981389;28;20231;-65
2023/03/28 12:34:37;;;;;;;11.65;2.42;;;;;;;;;;4939924;28;20141;-64
2023/03/28 12:37:10;;;;;;;7.80;2.15;;;;;;;;;;4955963;28;20558;-64
2023/03/28 12:39:43;;;;;;;5.05;2.50;;;;;;;;;;4956182;28;20125;-64
2023/03/28 12:42:11;;;;;;;5.38;2.00;;;;;;;;;;4970876;28;20043;-64
2023/03/28 12:47:25;;;;;;;8.35;2.97;;;;;;;;;;4953371;28;20066;-64
2023/03/28 12:50:00;;;;;;;12.45;2.80;;;;;;;;;;4956135;28;20054;-65
2023/03/28 12:52:26;;;;;;;5.18;2.47;;;;;;;;;;4972896;28;20462;-64
2023/03/28 12:54:57;;;;;;;9.88;2.38;;;;;;;;;;4972947;28;20050;-64
2023/03/28 12:57:44;;;;;;;4.60;2.60;;;;;;;;;;4952492;29;20051;-64
2023/03/28 13:00:25;;;;;;;6.20;2.10;;;;;;;;;;4920886;29;20130;-64
2023/03/28 13:02:54;;;;;;;5.43;2.20;;;;;;;;;;4965881;28;20058;-64
2023/03/28 13:05:23;;;;;;;4.68;2.13;;;;;;;;;;4971898;28;20050;-64
2023/03/28 13:08:15;;;;;;;5.80;2.47;;;;;;;;;;4939458;28;20054;-64
2023/03/28 13:10:41;;;;;;;7.38;2.05;;;;;;;;;;4921131;29;20050;-64
2023/03/28 13:13:22;;;;;;;5.55;2.10;;;;;;;;;;4953566;29;20109;-64
2023/03/28 13:16:00;;;;;;;9.82;2.78;;;;;;;;;;4958208;28;20078;-64
2023/03/28 13:18:30;;;;;;;8.50;2.60;;;;;;;;;;4955828;28;20150;-64
2023/03/28 13:20:56;;;;;;;7.45;2.42;;;;;;;;;;4975835;28;20406;-64
2023/03/28 13:23:46;;;;;;;8.63;2.70;;;;;;;;;;4943715;28;20059;-63
2023/03/28 13:26:12;;;;;;;7.82;2.70;;;;;;;;;;4951356;28;20058;-64
2023/03/28 13:28:38;;;;;;;7.43;2.70;;;;;;;;;;4976608;28;20051;-64
2023/03/28 13:31:05;;;;;;;6.25;2.10;;;;;;;;;;4976534;28;20043;-64
2023/03/28 13:33:38;;;;;;;3.78;2.20;;;;;;;;;;4959410;28;20057;-64
2023/03/28 13:36:04;;;;;;;7.57;2.35;;;;;;;;;;4958793;28;20054;-64
2023/03/28 13:38:30;;;;;;;8.65;2.67;;;;;;;;;;4975703;28;20303;-64
2023/03/28 13:41:08;;;;;;;4.00;2.00;;;;;;;;;;4959104;28;20039;-64
2023/03/28 13:43:45;;;;;;;4.88;2.38;;;;;;;;;;4976011;28;20511;-64
2023/03/28 13:46:24;;;;;;;7.32;2.22;;;;;;;;;;4958582;28;20054;-64
2023/03/28 13:48:50;;;;;;;4.45;1.70;;;;;;;;;;4958233;28;20051;-64
2023/03/28 13:51:19;;;;;;;10.23;2.22;;;;;;;;;;4974021;28;20170;-64
2023/03/28 13:53:47;;;;;;;4.35;1.90;;;;;;;;;;4942285;28;20108;-63
2023/03/28 13:56:28;;;;;;;6.43;2.10;;;;;;;;;;4957513;28;20396;-64
2023/03/28 13:58:55;;;;;;;5.22;2.25;;;;;;;;;;4942848;28;20050;-64
2023/03/28 14:01:26;;;;;;;5.40;1.88;;;;;;;;;;4957634;28;20097;-64
2023/03/28 14:03:54;;;;;;;7.70;2.25;;;;;;;;;;4974614;28;20062;-64
2023/03/28 14:06:21;;;;;;;5.22;2.05;;;;;;;;;;4942496;28;20086;-64
2023/03/28 14:08:49;;;;;;;6.65;1.98;;;;;;;;;;4958907;28;20129;-64
2023/03/28 14:11:16;;;;;;;7.72;2.03;;;;;;;;;;4941497;28;20058;-64
2023/03/28 14:13:43;;;;;;;7.38;2.60;;;;;;;;;;4957888;28;20510;-64
2023/03/28 14:16:09;;;;;;;7.43;2.40;;;;;;;;;;4958238;28;20058;-64
2023/03/28 14:18:43;;;;;;;7.03;2.30;;;;;;;;;;4941032;28;20056;-64
2023/03/28 14:21:09;;;;;;;5.70;1.92;;;;;;;;;;4975701;28;20042;-64
2023/03/28 14:23:39;;;;;;;5.95;2.22;;;;;;;;;;4975462;28;20094;-64
2023/03/28 14:26:16;;;;;;;5.60;1.83;;;;;;;;;;4957649;28;20078;-64
2023/03/28 14:28:44;;;;;;;6.57;1.50;;;;;;;;;;4954596;29;20079;-64
2023/03/28 14:31:12;;;;;;;5.90;2.05;;;;;;;;;;4956472;28;20042;-64
2023/03/28 14:33:38;;;;;;;7.50;1.80;;;;;;;;;;4938367;28;20054;-64
2023/03/28 14:36:04;;;;;;;4.13;1.58;;;;;;;;;;4938558;29;20051;-63
2023/03/28 14:38:34;;;;;;;7.20;1.92;;;;;;;;;;4954360;28;20821;-63
2023/03/28 14:41:30;;;;;;;7.00;1.90;;;;;;;;;;4956288;28;20050;-63
2023/03/28 14:43:57;;;;;;;5.70;1.75;;;;;;;;;;4966474;28;20158;-64
2023/03/28 14:46:28;;;;;;;5.70;1.48;;;;;;;;;;4970503;28;20054;-63
2023/03/28 14:48:56;;;;;;;6.78;2.30;;;;;;;;;;4956888;28;20097;-63
2023/03/28 14:51:22;;;;;;;7.72;1.95;;;;;;;;;;4957298;28;20070;-64
2023/03/28 14:53:49;;;;;;;6.53;2.40;;;;;;;;;;4956398;28;20129;-64
2023/03/28 14:56:18;;;;;;;3.92;1.90;;;;;;;;;;4973967;28;20050;-63
2023/03/28 14:58:45;;;;;;;10.50;2.30;;;;;;;;;;4957840;28;20047;-64
2023/03/28 15:01:21;;;;;;;5.35;2.20;;;;;;;;;;4955734;28;20082;-63